KSDFKLOU

Guest
Details From KSDF - Louisville Intl Standiford Fld
To KLOU - Bowman Fld
Flight Number -
Tags Generated
Created
Modified
Stats Distance 5 nm / 9 km
Max Altitude 0 ft / 0 m
Waypoints 2
Social Downloads 2
Likes 0
Share VATSIM

Download

Looking for another format? Having issues loading an existing format? Contact us
Advertisement - Login to hide

Notes

Generated

Route

KSDF KLOU

ID Type Via Altitude Latitude Longitude Leg Dist Tot Dist Heading (true) Name
O KSDF APT - 0 ft / 0 m 38.18023˚ -85.74735˚ - 0 nm - -
O KLOU APT - 0 ft / 0 m 38.23137˚ -85.66847˚ 4 nm 4 nm 50° / 50° -

Altitude Profile

Advertisement - Login to hide

KSDF

Details ICAO KSDF (SDF)
Name Louisville Intl Standiford Fld
Region United States
Timezone America/New_York (UTC-5.0)
Stats Elevation 501 ft / 153 m (AMSL)
Location 38.175051° -85.735692°
Runways 3
Magnetic Variation 4.812° W

METAR

KSDF 170256Z 19005KT 10SM BKN250 07/M02 A3016 RMK AO2 SLP217 T00721017 53009

Decode

TAF

TAF KSDF 162320Z 1700/1806 19005KT P6SM BKN200 FM171600 19007KT P6SM VCSH OVC050 FM172200 19006KT P6SM OVC027 FM180400 21006KT P6SM OVC017

Decode

Departure Runways

ID Width Length Bearing (true) Bearing (mag) Surface Threshold Offset Overrun Length
11 150 ft / 46 m 7,238 ft / 2,206 m 111.19° 116.00° Concrete 0 ft / 0 m 0 ft / 0 m
17L 150 ft / 46 m 8,593 ft / 2,619 m 164.97° 169.78° Concrete 329 ft / 100 m 0 ft / 0 m
17R 150 ft / 46 m 10,869 ft / 3,313 m 165.44° 170.25° Concrete 850 ft / 259 m 0 ft / 0 m
29 150 ft / 46 m 7,238 ft / 2,206 m 291.20° 296.01° Concrete 0 ft / 0 m 0 ft / 0 m
35L 150 ft / 46 m 10,869 ft / 3,313 m 345.45° 350.26° Concrete 0 ft / 0 m 0 ft / 0 m
35R 150 ft / 46 m 8,593 ft / 2,619 m 344.98° 349.79° Concrete 450 ft / 137 m 0 ft / 0 m

KLOU

Details ICAO KLOU (LOU)
Name BOWMAN FLD
Region United States
Timezone America/New_York (UTC-5.0)
Stats Elevation 546 ft / 166 m (AMSL)
Location 38.227933° -85.663839°
Runways 2
Magnetic Variation 4.872° W

METAR

KLOU 170253Z 18007KT 10SM CLR 05/M01 A3017 RMK AO2 SLP221 T00501011 51011

Decode

TAF

Not found

Destination Runways

ID Width Length Bearing (true) Bearing (mag) Surface Threshold Offset Overrun Length
06 75 ft / 23 m 4,352 ft / 1,327 m 59.50° 64.37° Asphalt 847 ft / 258 m 0 ft / 0 m
14 80 ft / 24 m 3,581 ft / 1,092 m 143.69° 148.56° Asphalt 206 ft / 63 m 0 ft / 0 m
24 75 ft / 23 m 4,352 ft / 1,327 m 239.51° 244.38° Asphalt 310 ft / 94 m 0 ft / 0 m
32 80 ft / 24 m 3,581 ft / 1,092 m 323.70° 328.57° Asphalt 341 ft / 104 m 0 ft / 0 m